»·PEaware :: UAL5118 KSEA-KSAT

UAL5118 :: KSEA-KSAT

FLIGHT INFORMATION

Flight Status: Arrived
Operator:
United Airlines
More flights by this operator :: More flights under this callsign
Pilot: Mounir D. (11581)
Aircraft: BOEING 737-300
(B733)
More flights by this aircraft type
Origin: KSEA Seattle-Tacoma Intl
United States
Destination: KSAT San Antonio Intl
United States
More flights between these airports :: More routes between these airports
Route:
File this flight plan on PilotEdge
Remarks:
Altitude:
(Current/Filed)
35,000ft
Speed:
(Current/Filed)
450kts
Departed: 28-Aug-16 04:40 AM
Arrived: 28-Aug-16 07:13 AM
Distance/Time
Traveled:
1540nm/2:33
Distance/Time
To Go:
Arrived

Flight Plot

Page will automatically refresh every two minutes.


Map Options




Map Legend


Flown Route
Filed Route
Departure Airport
Arrival Airport
Navaid (VOR, NDB)
Fix

Horizontal Profiles

Position Reports

Time Latitude Longitude Heading Altitude Ground
Speed
28-Aug-16 04:36 47.463639 -122.307764 180 440ft 0kts
28-Aug-16 04:37 47.463639 -122.307764 180 440ft 0kts
28-Aug-16 04:38 47.457047 -122.307797 178 440ft 115kts
28-Aug-16 04:39 47.412561 -122.310194 158 2266ft 197kts
28-Aug-16 04:40 47.356526 -122.290594 174 4374ft 254kts
28-Aug-16 04:41 47.287343 -122.285687 181 7620ft 264kts
28-Aug-16 04:42 47.212587 -122.279385 173 10337ft 291kts
28-Aug-16 04:43 47.124774 -122.242049 165 11855ft 357kts
28-Aug-16 04:44 47.030463 -122.194659 165 14481ft 372kts
28-Aug-16 04:45 46.970004 -122.163994 165 16026ft 380kts
28-Aug-16 04:46 46.875936 -122.116382 165 18248ft 390kts
28-Aug-16 04:47 46.772945 -122.064460 165 20360ft 402kts
28-Aug-16 04:48 46.666592 -122.011042 165 22298ft 413kts
28-Aug-16 04:49 46.574564 -121.911017 138 23979ft 438kts
28-Aug-16 04:50 46.497932 -121.770478 128 25582ft 453kts
28-Aug-16 04:51 46.425103 -121.622848 128 27001ft 464kts
28-Aug-16 04:52 46.349502 -121.470264 128 28514ft 470kts
28-Aug-16 04:53 46.276726 -121.323918 129 30251ft 464kts
28-Aug-16 04:54 46.202519 -121.174477 129 31688ft 461kts
28-Aug-16 04:55 46.127997 -121.026476 129 32816ft 462kts
28-Aug-16 04:56 46.053022 -120.878339 129 33839ft 462kts
28-Aug-16 04:57 45.977915 -120.730718 129 34813ft 460kts
28-Aug-16 04:58 45.902607 -120.583493 129 35047ft 460kts
28-Aug-16 04:59 45.830619 -120.443458 129 35027ft 458kts
28-Aug-16 05:00 45.757890 -120.302043 129 35030ft 459kts
28-Aug-16 05:01 45.682902 -120.156836 130 35030ft 458kts
28-Aug-16 05:02 45.607377 -120.012145 130 35029ft 458kts
28-Aug-16 05:03 45.544136 -119.891548 130 35027ft 458kts
28-Aug-16 05:04 45.455473 -119.723330 130 35027ft 458kts
28-Aug-16 05:05 45.391807 -119.603152 130 35027ft 458kts
28-Aug-16 05:06 45.315864 -119.460461 130 35027ft 458kts
28-Aug-16 05:07 45.241871 -119.321847 130 35024ft 458kts
28-Aug-16 05:08 45.208013 -119.257834 131 35025ft 457kts
28-Aug-16 05:09 45.155041 -119.159234 131 35041ft 458kts
28-Aug-16 05:10 45.101713 -119.060518 131 35062ft 457kts
28-Aug-16 05:11 45.025333 -118.919705 130 35105ft 453kts
28-Aug-16 05:12 44.949104 -118.779862 130 35154ft 453kts
28-Aug-16 05:13 44.873974 -118.642727 130 35152ft 456kts
28-Aug-16 05:14 44.796794 -118.502491 130 35162ft 455kts
28-Aug-16 05:15 44.719759 -118.363212 130 35136ft 453kts
28-Aug-16 05:16 44.647467 -118.231843 131 35110ft 450kts
28-Aug-16 05:17 44.570306 -118.093609 131 35147ft 456kts
28-Aug-16 05:18 44.492688 -117.955264 131 35129ft 454kts
28-Aug-16 05:19 44.415372 -117.818113 131 35105ft 449kts
28-Aug-16 05:20 44.338843 -117.683021 131 35117ft 451kts
28-Aug-16 05:21 44.261737 -117.547524 131 35105ft 454kts
28-Aug-16 05:22 44.184355 -117.412176 131 35070ft 455kts
28-Aug-16 05:23 44.111781 -117.284938 131 35047ft 451kts
28-Aug-16 05:24 44.034906 -117.151301 132 35048ft 452kts
28-Aug-16 05:25 43.956577 -117.016181 132 35065ft 456kts
28-Aug-16 05:26 43.879169 -116.883244 131 35061ft 454kts
28-Aug-16 05:27 43.800533 -116.748839 131 35058ft 454kts
28-Aug-16 05:28 43.721344 -116.614107 131 35064ft 454kts
28-Aug-16 05:29 43.642113 -116.479933 131 35064ft 454kts
28-Aug-16 05:30 43.563942 -116.348152 132 35064ft 454kts
28-Aug-16 05:31 43.488128 -116.219689 132 35063ft 453kts
28-Aug-16 05:32 43.408387 -116.086456 132 35063ft 453kts
28-Aug-16 05:33 43.328829 -115.954143 132 35057ft 453kts
28-Aug-16 05:34 43.249071 -115.822100 132 35055ft 453kts
28-Aug-16 05:35 43.168960 -115.690073 132 35055ft 453kts
28-Aug-16 05:36 43.088486 -115.558040 132 35055ft 453kts
28-Aug-16 05:37 43.008438 -115.427296 132 35056ft 453kts
28-Aug-16 05:38 42.930831 -115.300443 132 35053ft 451kts
28-Aug-16 05:39 42.852955 -115.173793 132 35057ft 450kts
28-Aug-16 05:40 42.773856 -115.046287 132 35115ft 453kts
28-Aug-16 05:41 42.693270 -114.916933 131 35118ft 453kts
28-Aug-16 05:42 42.612444 -114.787768 131 35114ft 453kts
28-Aug-16 05:43 42.531326 -114.658705 131 35111ft 453kts
28-Aug-16 05:44 42.450074 -114.529995 131 35110ft 453kts
28-Aug-16 05:45 42.368496 -114.401330 131 35110ft 453kts
28-Aug-16 05:46 42.289285 -114.276000 132 35109ft 453kts
28-Aug-16 05:47 42.207901 -114.148508 132 35113ft 453kts
28-Aug-16 05:48 42.126169 -114.021258 132 35116ft 453kts
28-Aug-16 05:49 42.044194 -113.894173 132 35119ft 452kts
28-Aug-16 05:50 41.961793 -113.766975 132 35119ft 452kts
28-Aug-16 05:51 41.882502 -113.645091 132 35118ft 452kts
28-Aug-16 05:52 41.800410 -113.519420 132 35119ft 453kts
28-Aug-16 05:53 41.717973 -113.393758 132 35119ft 453kts
28-Aug-16 05:54 41.640784 -113.275653 133 35119ft 452kts
28-Aug-16 05:55 41.558457 -113.150983 133 35149ft 452kts
28-Aug-16 05:56 41.475926 -113.026729 133 35183ft 452kts
28-Aug-16 05:57 41.392975 -112.902355 132 35182ft 451kts
28-Aug-16 05:58 41.310177 -112.778729 132 35183ft 449kts
28-Aug-16 05:59 41.227967 -112.656485 132 35174ft 450kts
28-Aug-16 06:00 41.145350 -112.534135 132 35170ft 450kts
28-Aug-16 06:01 41.063338 -112.413182 131 35171ft 450kts
28-Aug-16 06:02 40.982914 -112.294302 130 35194ft 448kts
28-Aug-16 06:03 40.915051 -112.194628 130 35197ft 443kts
28-Aug-16 06:04 40.826141 -112.064990 130 35159ft 440kts
28-Aug-16 06:05 40.744880 -111.946972 129 35171ft 444kts
28-Aug-16 06:06 40.677397 -111.849340 130 35156ft 440kts
28-Aug-16 06:07 40.596254 -111.732342 130 35169ft 440kts
28-Aug-16 06:08 40.501094 -111.595712 130 35237ft 445kts
28-Aug-16 06:09 40.432206 -111.497214 130 35214ft 438kts
28-Aug-16 06:10 40.350495 -111.380755 130 35228ft 442kts
28-Aug-16 06:11 40.272089 -111.268532 130 35246ft 445kts
28-Aug-16 06:12 40.188906 -111.150765 131 35256ft 446kts
28-Aug-16 06:13 40.106133 -111.034243 130 35259ft 437kts
28-Aug-16 06:14 40.025283 -110.920753 130 35255ft 429kts
28-Aug-16 06:15 39.945015 -110.808499 131 35291ft 433kts
28-Aug-16 06:16 39.866466 -110.699107 131 35340ft 439kts
28-Aug-16 06:17 39.786443 -110.588015 131 35246ft 428kts
28-Aug-16 06:18 39.705413 -110.476022 130 35316ft 437kts
28-Aug-16 06:19 39.623141 -110.362581 131 35320ft 440kts
28-Aug-16 06:20 39.544776 -110.254088 131 35268ft 430kts
28-Aug-16 06:21 39.463420 -110.142678 132 35314ft 440kts
28-Aug-16 06:22 39.380734 -110.029980 131 35278ft 440kts
28-Aug-16 06:23 39.297386 -109.916837 132 35267ft 444kts
28-Aug-16 06:24 39.215442 -109.805967 131 35182ft 422kts
28-Aug-16 06:25 39.135887 -109.698749 131 35194ft 430kts
28-Aug-16 06:26 39.055883 -109.591218 131 35188ft 431kts
28-Aug-16 06:27 38.974850 -109.482702 132 35277ft 440kts
28-Aug-16 06:28 38.898911 -109.381463 131 35154ft 403kts
28-Aug-16 06:29 38.831842 -109.291494 132 35183ft 412kts
28-Aug-16 06:30 38.755507 -109.190029 132 35259ft 428kts
28-Aug-16 06:31 38.680906 -109.091402 133 35237ft 398kts
28-Aug-16 06:32 38.611185 -108.999564 136 35260ft 389kts
28-Aug-16 06:33 38.538741 -108.904440 137 35354ft 400kts
28-Aug-16 06:34 38.467874 -108.811630 137 35390ft 406kts
28-Aug-16 06:35 38.395756 -108.717467 137 35410ft 407kts
28-Aug-16 06:36 38.325395 -108.625853 137 35389ft 409kts
28-Aug-16 06:37 38.255047 -108.534530 136 35395ft 405kts
28-Aug-16 06:38 38.186130 -108.445396 137 35386ft 405kts
28-Aug-16 06:39 38.117079 -108.356211 138 35416ft 404kts
28-Aug-16 06:40 38.055219 -108.275852 138 35481ft 405kts
28-Aug-16 06:41 37.986486 -108.187524 138 35533ft 407kts
28-Aug-16 06:42 37.915811 -108.097083 137 35556ft 415kts
28-Aug-16 06:43 36.692072 -106.376645 138 35551ft 407kts
28-Aug-16 06:44 36.619920 -106.337321 174 35364ft 371kts
28-Aug-16 06:45 31.783251 -100.438921 173 35350ft 377kts
28-Aug-16 06:46 31.070577 -100.393057 137 35116ft 407kts
28-Aug-16 06:47 31.001958 -100.285641 138 35126ft 428kts
28-Aug-16 06:48 30.911652 -100.193225 140 35191ft 439kts
28-Aug-16 06:49 30.826477 -100.107803 140 35170ft 438kts
28-Aug-16 06:50 30.734745 -100.016041 140 35160ft 437kts
28-Aug-16 06:51 30.643718 -99.925100 139 32345ft 449kts
28-Aug-16 06:52 30.550370 -99.832172 139 29109ft 451kts
28-Aug-16 06:53 30.462684 -99.745111 138 26511ft 438kts
28-Aug-16 06:54 30.377630 -99.660868 138 24335ft 418kts
28-Aug-16 06:55 30.306360 -99.590430 138 22489ft 402kts
28-Aug-16 06:56 30.251855 -99.536656 138 21070ft 391kts
28-Aug-16 06:57 30.199020 -99.484606 138 19688ft 381kts
28-Aug-16 06:58 30.135982 -99.422590 138 17470ft 386kts
28-Aug-16 06:59 30.078251 -99.365885 138 14254ft 414kts
28-Aug-16 07:00 30.032692 -99.307090 129 12404ft 401kts
28-Aug-16 07:01 29.513696 -98.560256 128 6191ft 394kts
28-Aug-16 07:02 29.475413 -98.489905 100 4654ft 367kts
28-Aug-16 07:03 29.465582 -98.419570 84 3018ft 356kts
28-Aug-16 07:04 29.633606 -98.604144 134 4186ft 185kts
28-Aug-16 07:05 29.605870 -98.569455 106 3822ft 215kts
28-Aug-16 07:06 29.587301 -98.539317 139 1581ft 135kts
28-Aug-16 07:07 29.555574 -98.502666 129 1269ft 144kts
28-Aug-16 07:08 29.539768 -98.481633 130 823ft 139kts
28-Aug-16 07:09 29.539768 -98.481633 130 823ft 139kts
28-Aug-16 07:10 29.539768 -98.481633 130 823ft 139kts
28-Aug-16 07:11 29.531581 -98.472800 176 816ft 36kts
28-Aug-16 07:12 29.530915 -98.472755 176 816ft 0kts
28-Aug-16 07:13 29.530915 -98.472755 176 816ft 0kts
28-Aug-16 07:14 29.530915 -98.472755 176 816ft 0kts
28-Aug-16 07:15 29.530915 -98.472755 176 816ft 0kts
28-Aug-16 07:16 29.530915 -98.472755 176 816ft 0kts
28-Aug-16 07:17 29.530915 -98.472755 176 816ft 0kts
28-Aug-16 07:18 29.530915 -98.472755 176 816ft 0kts
28-Aug-16 07:19 29.530915 -98.472755 176 816ft 0kts
28-Aug-16 07:20 29.530915 -98.472755 176 816ft 0kts
28-Aug-16 07:21 29.530915 -98.472755 176 816ft 0kts
28-Aug-16 07:22 29.530915 -98.472755 176 816ft 0kts
28-Aug-16 07:23 29.530915 -98.472755 176 816ft 0kts
28-Aug-16 07:24 29.530915 -98.472755 176 816ft 0kts
28-Aug-16 07:25 29.530915 -98.472755 176 816ft 0kts

Navigation Log

Ident Type
Flight plan parsing failed, navigation log unavailable